Afrodite — CURM3 — position and weather

sailwx.info

Track history (hours):
 
Tides and Currents Weather Stations Pressure Air Temp Water Temp Dewpoint Dewpoint Depression Visibility Wind Speed Wind Dir Waves Ship Positions

Afrodite

Last reported at 2016-Aug-25 18:33 UTC. Time now 2016-Aug-26 10:17 UTC.
Position N 39°18' W 009°27'.

Length 26 m.

Type: Fishing. MMSI: 263500170.

Date/timePositionNaut miles runAvg speedWind from/ knotsBaromVisibWave heightAir tempDewpointWater temp
2016-Aug-25 18:33N 39°18' W 009°27'4 1.6
2016-Aug-25 16:14N 39°20' W 009°24'2 1.5
2016-Aug-25 15:13N 39°21' W 009°22'0 0.0
2016-Aug-25 14:20N 39°21' W 009°22'0 0.0
2016-Aug-25 13:33N 39°21' W 009°22'0 0.0
2016-Aug-25 12:30N 39°21' W 009°22'9 0.6
2016-Aug-24 21:20N 39°13' W 009°28'0 0.0
2016-Aug-24 20:26N 39°13' W 009°28'0 0.6
2016-Aug-24 19:33N 39°14' W 009°27'7 6.8
2016-Aug-24 18:33N 39°08' W 009°31'7 7.4
2016-Aug-24 17:33N 39°00' W 009°30'7 6.7
2016-Aug-24 16:33N 38°54' W 009°28'1 1.3
2016-Aug-24 15:33N 38°54' W 009°30'2 2.1
2016-Aug-24 14:33N 38°56' W 009°29'9 9.1
2016-Aug-24 13:33N 39°05' W 009°27'17 8.5
2016-Aug-24 11:33N 39°21' W 009°22'5 0.4
2016-Aug-23 23:04N 39°17' W 009°26'4 8.5
2016-Aug-23 22:33N 39°13' W 009°28'8 8.5
2016-Aug-23 21:33N 39°05' W 009°32'2 1.5
2016-Aug-23 20:33N 39°04' W 009°33'0 0.2
2016-Aug-23 19:32N 39°04' W 009°33'7 6.6
2016-Aug-23 18:33N 39°10' W 009°30'  
2016-Aug-18 20:33N 39°08' W 009°26'0 0.1
2016-Aug-18 19:33N 39°08' W 009°26'  
Track history (hours):
 
Tides and Currents Weather Stations Pressure Air Temp Water Temp Dewpoint Dewpoint Depression Visibility Wind Speed Wind Dir Waves Ship Positions

Afrodite

Last reported at 2016-Aug-25 18:33 UTC. Time now 2016-Aug-26 10:17 UTC.
Position N 39°18' W 009°27'.

Length 26 m.

Type: Fishing. MMSI: 263500170.

Date/timePositionNaut miles runAvg speedWind from/ knotsBaromVisibWave heightAir tempDewpointWater temp
2016-Aug-25 18:33N 39°18' W 009°27'4 1.6
2016-Aug-25 16:14N 39°20' W 009°24'2 1.5
2016-Aug-25 15:13N 39°21' W 009°22'0 0.0
2016-Aug-25 14:20N 39°21' W 009°22'0 0.0
2016-Aug-25 13:33N 39°21' W 009°22'0 0.0
2016-Aug-25 12:30N 39°21' W 009°22'9 0.6
2016-Aug-24 21:20N 39°13' W 009°28'0 0.0
2016-Aug-24 20:26N 39°13' W 009°28'0 0.6
2016-Aug-24 19:33N 39°14' W 009°27'7 6.8
2016-Aug-24 18:33N 39°08' W 009°31'7 7.4
2016-Aug-24 17:33N 39°00' W 009°30'7 6.7
2016-Aug-24 16:33N 38°54' W 009°28'1 1.3
2016-Aug-24 15:33N 38°54' W 009°30'2 2.1
2016-Aug-24 14:33N 38°56' W 009°29'9 9.1
2016-Aug-24 13:33N 39°05' W 009°27'17 8.5
2016-Aug-24 11:33N 39°21' W 009°22'5 0.4
2016-Aug-23 23:04N 39°17' W 009°26'4 8.5
2016-Aug-23 22:33N 39°13' W 009°28'8 8.5
2016-Aug-23 21:33N 39°05' W 009°32'2 1.5
2016-Aug-23 20:33N 39°04' W 009°33'0 0.2
2016-Aug-23 19:32N 39°04' W 009°33'7 6.6
2016-Aug-23 18:33N 39°10' W 009°30'  
2016-Aug-18 20:33N 39°08' W 009°26'0 0.1
2016-Aug-18 19:33N 39°08' W 009°26'  

Dump ship's entire track history